createdAt,value
2017-07-21T00:01:02.234Z,23.60
2017-07-21T00:03:29.758Z,23.70
2017-07-21T00:05:58.184Z,23.70
2017-07-21T00:08:25.697Z,23.70
2017-07-21T00:10:54.013Z,23.60
2017-07-21T00:13:21.537Z,23.60
2017-07-21T00:15:49.134Z,23.40
2017-07-21T00:18:16.664Z,23.30
2017-07-21T00:20:44.967Z,23.60
2017-07-21T00:23:12.498Z,23.60
2017-07-21T00:25:40.826Z,23.60
2017-07-21T00:28:08.346Z,23.60
2017-07-21T00:30:35.900Z,23.70
2017-07-21T00:33:03.438Z,23.60
2017-07-21T00:35:31.775Z,23.00
2017-07-21T00:37:59.346Z,23.00
2017-07-21T00:40:26.911Z,23.20
2017-07-21T00:42:54.464Z,23.40
2017-07-21T00:45:22.050Z,23.50
2017-07-21T00:47:49.586Z,23.50
2017-07-21T00:50:17.135Z,23.30
2017-07-21T00:52:44.650Z,23.10
2017-07-21T00:55:12.228Z,23.10
2017-07-21T00:57:39.764Z,23.10
2017-07-21T01:00:08.051Z,22.90
2017-07-21T01:02:36.345Z,22.90
2017-07-21T01:05:03.906Z,22.90
2017-07-21T01:07:31.476Z,23.00
2017-07-21T01:09:59.009Z,22.80
2017-07-21T01:12:26.539Z,22.60
2017-07-21T01:14:54.090Z,22.50
2017-07-21T01:17:21.619Z,22.60
2017-07-21T01:19:49.155Z,22.40
2017-07-21T01:22:16.681Z,21.90
2017-07-21T01:24:44.218Z,22.00
2017-07-21T01:27:11.762Z,22.30
2017-07-21T01:29:39.362Z,22.20
2017-07-21T01:32:07.716Z,22.40
2017-07-21T01:34:35.251Z,22.30
2017-07-21T01:37:02.808Z,22.50
2017-07-21T01:39:30.363Z,22.40
2017-07-21T01:41:57.890Z,22.30
2017-07-21T01:44:25.426Z,22.50
2017-07-21T01:46:53.013Z,22.30
2017-07-21T01:49:20.514Z,22.40
2017-07-21T01:51:48.069Z,22.50
2017-07-21T01:56:49.440Z,22.30
2017-07-21T01:59:17.008Z,22.10
2017-07-21T02:01:44.565Z,21.80
2017-07-21T02:04:12.090Z,21.90
2017-07-21T02:06:40.414Z,22.10
2017-07-21T02:09:07.944Z,22.10
2017-07-21T02:11:35.520Z,22.20
2017-07-21T02:14:03.046Z,21.90
2017-07-21T02:16:31.352Z,21.60
2017-07-21T02:18:58.878Z,21.60
2017-07-21T02:21:27.183Z,21.70
2017-07-21T02:23:54.702Z,21.70
2017-07-21T02:26:23.028Z,21.20
2017-07-21T02:28:50.547Z,21.10
2017-07-21T02:31:18.071Z,21.20
2017-07-21T02:33:45.610Z,21.50
2017-07-21T02:36:13.150Z,21.60
2017-07-21T02:38:40.728Z,21.70
2017-07-21T02:41:08.274Z,21.60
2017-07-21T02:43:35.777Z,21.10
2017-07-21T02:46:03.353Z,20.90
2017-07-21T02:48:31.675Z,20.80
2017-07-21T02:50:59.211Z,20.70
2017-07-21T02:53:27.522Z,20.70
2017-07-21T02:55:55.046Z,20.70
2017-07-21T02:58:23.327Z,20.50
2017-07-21T03:00:51.610Z,20.60
2017-07-21T03:03:19.886Z,20.50
2017-07-21T03:05:48.191Z,20.60
2017-07-21T03:10:49.798Z,20.70
2017-07-21T03:13:17.363Z,20.60
2017-07-21T03:15:44.902Z,20.40
2017-07-21T03:18:12.425Z,20.40
2017-07-21T03:20:39.950Z,20.30
2017-07-21T03:23:27.224Z,20.40
2017-07-21T03:25:54.742Z,20.50
2017-07-21T03:28:22.266Z,20.60
2017-07-21T03:30:49.836Z,20.80
2017-07-21T03:33:17.346Z,20.50
2017-07-21T03:35:44.927Z,20.50
2017-07-21T03:38:12.438Z,20.60
2017-07-21T03:40:39.948Z,20.50
2017-07-21T03:43:07.498Z,20.50
2017-07-21T03:45:35.027Z,20.50
2017-07-21T03:48:03.327Z,20.80
2017-07-21T03:50:30.911Z,20.70
2017-07-21T03:52:58.454Z,20.90
2017-07-21T03:55:25.975Z,20.90
2017-07-21T03:57:54.311Z,20.60
2017-07-21T04:00:21.830Z,20.60
2017-07-21T04:02:50.136Z,20.90
2017-07-21T04:05:17.705Z,20.90
2017-07-21T04:07:45.234Z,20.90
2017-07-21T04:10:12.785Z,20.70
2017-07-21T04:12:40.326Z,20.70
2017-07-21T04:15:07.870Z,20.90
2017-07-21T04:17:35.411Z,20.80
2017-07-21T04:20:02.930Z,20.90
2017-07-21T04:22:30.470Z,20.90
2017-07-21T04:24:58.057Z,20.80
2017-07-21T04:27:25.609Z,20.70
2017-07-21T04:29:53.126Z,20.50
2017-07-21T04:32:20.642Z,20.50
2017-07-21T04:34:48.137Z,20.50
2017-07-21T04:37:15.709Z,20.50
2017-07-21T04:39:43.226Z,20.70
2017-07-21T04:42:10.756Z,20.90
2017-07-21T04:44:38.286Z,20.90
2017-07-21T04:47:05.832Z,20.90
2017-07-21T04:49:33.369Z,20.70
2017-07-21T04:52:00.939Z,20.80
2017-07-21T04:54:28.490Z,20.70
2017-07-21T04:56:56.041Z,20.60
2017-07-21T04:59:23.546Z,20.60
2017-07-21T05:01:51.105Z,20.30
2017-07-21T05:04:18.611Z,19.90
2017-07-21T05:06:46.173Z,20.00
2017-07-21T05:09:13.725Z,19.90
2017-07-21T05:11:41.250Z,20.00
2017-07-21T05:14:08.931Z,20.00
2017-07-21T05:16:36.449Z,20.50
2017-07-21T05:19:03.969Z,20.70
2017-07-21T05:21:31.478Z,20.90
2017-07-21T05:23:59.066Z,20.80
2017-07-21T05:26:27.337Z,20.40
2017-07-21T05:28:54.878Z,20.40
2017-07-21T05:31:22.399Z,20.40
2017-07-21T05:33:49.926Z,20.60
2017-07-21T05:36:17.453Z,20.80
2017-07-21T05:38:45.008Z,21.10
2017-07-21T05:41:12.533Z,21.40
2017-07-21T05:43:40.084Z,21.40
2017-07-21T05:46:07.639Z,21.30
2017-07-21T05:48:35.201Z,21.30
2017-07-21T05:51:02.725Z,21.50
2017-07-21T05:53:32.295Z,21.70
2017-07-21T05:56:02.051Z,21.70
2017-07-21T05:58:29.634Z,21.80
2017-07-21T06:00:57.144Z,21.40
2017-07-21T06:03:24.687Z,21.20
2017-07-21T06:05:52.214Z,21.60
2017-07-21T06:08:19.753Z,21.50
2017-07-21T06:10:47.287Z,21.30
2017-07-21T06:13:14.833Z,21.60
2017-07-21T06:15:42.363Z,21.80
2017-07-21T06:18:09.895Z,21.70
2017-07-21T06:20:38.196Z,21.40
2017-07-21T06:23:05.738Z,21.40
2017-07-21T06:25:33.285Z,21.80
2017-07-21T06:28:00.885Z,21.90
2017-07-21T06:30:28.410Z,22.30
2017-07-21T06:32:55.951Z,22.40
2017-07-21T06:35:23.481Z,22.50
2017-07-21T06:37:51.028Z,22.70
2017-07-21T06:40:18.530Z,22.60
2017-07-21T06:42:46.066Z,22.70
2017-07-21T06:45:13.611Z,22.90
2017-07-21T06:47:41.174Z,22.60
2017-07-21T06:50:08.732Z,23.20
2017-07-21T06:52:36.261Z,24.30
2017-07-21T06:55:03.770Z,26.60
2017-07-21T06:57:31.304Z,28.50
2017-07-21T06:59:58.851Z,30.60
2017-07-21T07:02:26.420Z,32.00
2017-07-21T07:04:53.944Z,30.10
2017-07-21T07:07:22.208Z,31.00
2017-07-21T07:09:49.746Z,31.00
2017-07-21T07:12:17.289Z,32.50
2017-07-21T07:14:44.860Z,33.80
2017-07-21T07:17:12.382Z,34.70
2017-07-21T07:19:39.951Z,35.60
2017-07-21T07:22:07.464Z,36.00
2017-07-21T07:24:34.998Z,36.20
2017-07-21T07:27:02.563Z,36.10
2017-07-21T07:29:30.126Z,36.90
2017-07-21T07:31:57.646Z,37.90
2017-07-21T07:34:25.171Z,38.20
2017-07-21T07:36:52.666Z,38.50
2017-07-21T07:39:20.192Z,38.60
2017-07-21T07:41:47.754Z,37.80
2017-07-21T07:44:15.424Z,35.30
2017-07-21T07:46:43.735Z,34.30
2017-07-21T07:49:11.295Z,34.30
2017-07-21T07:51:38.825Z,34.50
2017-07-21T07:54:06.374Z,34.30
2017-07-21T07:56:33.883Z,35.70
2017-07-21T07:59:01.410Z,36.50
2017-07-21T08:01:28.934Z,37.30
2017-07-21T08:03:56.521Z,38.10
2017-07-21T08:06:24.811Z,36.20
2017-07-21T08:08:52.379Z,36.10
2017-07-21T08:11:19.925Z,34.50
2017-07-21T08:13:48.221Z,33.30
2017-07-21T08:16:15.733Z,33.30
2017-07-21T08:18:43.262Z,33.40
2017-07-21T08:21:10.786Z,33.00
2017-07-21T08:23:38.289Z,33.10
2017-07-21T08:26:05.812Z,33.10
2017-07-21T08:28:33.347Z,32.10
2017-07-21T08:31:01.660Z,31.80
2017-07-21T08:33:29.181Z,31.80
2017-07-21T08:35:56.730Z,31.70
2017-07-21T08:38:24.246Z,31.50
2017-07-21T08:40:51.784Z,31.20
2017-07-21T08:43:19.386Z,30.50
2017-07-21T08:45:46.911Z,30.30
2017-07-21T08:48:14.410Z,30.20
2017-07-21T08:50:41.949Z,29.90
2017-07-21T08:53:09.493Z,29.80
2017-07-21T08:55:37.023Z,29.30
2017-07-21T08:58:05.305Z,29.10
2017-07-21T09:00:33.620Z,28.80
2017-07-21T09:03:01.172Z,28.80
2017-07-21T09:05:28.714Z,28.80
2017-07-21T09:07:56.241Z,29.10
2017-07-21T09:10:23.800Z,29.20
2017-07-21T09:12:51.326Z,29.60
2017-07-21T09:15:18.861Z,29.80
2017-07-21T09:17:46.387Z,29.10
2017-07-21T09:20:13.937Z,28.80
2017-07-21T09:22:41.447Z,28.40
2017-07-21T09:25:08.992Z,28.20
2017-07-21T09:27:36.495Z,28.60
2017-07-21T09:30:04.078Z,28.90
2017-07-21T09:32:31.589Z,29.40
2017-07-21T09:34:59.105Z,29.60
2017-07-21T09:37:26.625Z,29.80
2017-07-21T09:39:54.214Z,29.70
2017-07-21T09:42:21.750Z,29.90
2017-07-21T09:44:49.294Z,30.10
2017-07-21T09:47:16.797Z,30.20
2017-07-21T09:49:45.141Z,29.90
2017-07-21T09:52:12.689Z,29.90
2017-07-21T09:54:40.275Z,29.90
2017-07-21T09:57:07.790Z,30.10
2017-07-21T09:59:35.322Z,30.20
2017-07-21T10:02:02.878Z,30.10
2017-07-21T10:04:31.218Z,30.60
2017-07-21T10:06:58.746Z,30.60
2017-07-21T10:09:26.249Z,30.90
2017-07-21T10:11:53.768Z,31.20
2017-07-21T10:14:21.320Z,31.30
2017-07-21T10:16:48.873Z,31.50
2017-07-21T10:19:16.399Z,31.70
2017-07-21T10:21:43.963Z,31.30
2017-07-21T10:24:11.494Z,31.30
2017-07-21T10:26:39.042Z,30.70
2017-07-21T10:29:06.547Z,29.70
2017-07-21T10:31:34.085Z,29.50
2017-07-21T10:34:01.663Z,29.50
2017-07-21T10:36:29.178Z,29.10
2017-07-21T10:38:56.729Z,29.50
2017-07-21T10:41:24.242Z,29.90
2017-07-21T10:43:51.766Z,29.60
2017-07-21T10:46:19.306Z,29.60
2017-07-21T10:48:46.878Z,29.50
2017-07-21T10:51:14.414Z,29.70
2017-07-21T10:53:41.952Z,29.20
2017-07-21T10:56:10.282Z,29.30
2017-07-21T10:58:37.804Z,29.30
2017-07-21T11:01:05.353Z,29.80
2017-07-21T11:03:32.883Z,30.40
2017-07-21T11:06:00.405Z,30.80
2017-07-21T11:08:27.930Z,30.90
2017-07-21T11:10:56.240Z,31.30
2017-07-21T11:13:23.793Z,31.20
2017-07-21T11:15:51.336Z,31.50
2017-07-21T11:18:18.877Z,31.80
2017-07-21T11:20:46.418Z,32.10
2017-07-21T11:23:13.960Z,31.50
2017-07-21T11:25:41.524Z,30.90
2017-07-21T11:28:09.478Z,31.00
2017-07-21T11:30:37.006Z,31.60
2017-07-21T11:33:04.566Z,32.20
2017-07-21T11:35:32.879Z,33.00
2017-07-21T11:38:00.446Z,32.90
2017-07-21T11:40:27.977Z,33.20
2017-07-21T11:42:55.507Z,33.50
2017-07-21T11:45:23.037Z,33.70
2017-07-21T11:47:50.558Z,33.90
2017-07-21T11:50:18.054Z,32.90
2017-07-21T11:52:45.576Z,33.00
2017-07-21T11:55:13.177Z,33.00
2017-07-21T11:57:40.742Z,32.40
2017-07-21T12:00:08.265Z,32.30
2017-07-21T12:02:35.983Z,32.50
2017-07-21T12:05:03.539Z,32.80
2017-07-21T12:07:31.089Z,32.20
2017-07-21T12:09:58.644Z,32.20
2017-07-21T12:12:26.164Z,31.90
2017-07-21T12:14:53.672Z,32.00
2017-07-21T12:17:21.187Z,31.80
2017-07-21T12:19:48.684Z,32.30
2017-07-21T12:22:16.213Z,32.60
2017-07-21T12:24:43.715Z,32.70
2017-07-21T12:27:11.238Z,32.30
2017-07-21T12:29:38.780Z,31.80
2017-07-21T12:32:06.346Z,31.90
2017-07-21T12:34:33.850Z,31.50
2017-07-21T12:37:01.378Z,30.80
2017-07-21T12:39:28.935Z,31.40
2017-07-21T12:41:56.490Z,31.80
2017-07-21T12:44:24.004Z,32.50
2017-07-21T12:46:51.561Z,33.10
2017-07-21T12:49:19.828Z,33.60
2017-07-21T12:51:48.969Z,33.80
2017-07-21T12:54:16.498Z,33.80
2017-07-21T12:56:44.841Z,32.50
2017-07-21T12:59:12.372Z,32.50
2017-07-21T13:01:39.896Z,32.00
2017-07-21T13:04:08.276Z,32.60
2017-07-21T13:06:36.582Z,32.90
2017-07-21T13:09:04.162Z,32.80
2017-07-21T13:11:31.698Z,32.80
2017-07-21T13:13:59.246Z,32.60
2017-07-21T13:16:27.530Z,32.50
2017-07-21T13:18:55.050Z,32.50
2017-07-21T13:21:22.608Z,32.90
2017-07-21T13:23:50.147Z,33.20
2017-07-21T13:26:17.682Z,33.70
2017-07-21T13:28:45.224Z,34.00
2017-07-21T13:31:12.729Z,34.10
2017-07-21T13:33:40.295Z,34.00
2017-07-21T13:36:07.808Z,33.70
2017-07-21T13:38:35.338Z,33.30
2017-07-21T13:41:02.906Z,33.10
2017-07-21T13:43:31.210Z,33.70
2017-07-21T13:45:58.937Z,33.70
2017-07-21T13:48:32.250Z,34.20
2017-07-21T13:51:00.550Z,34.50
2017-07-21T13:53:28.082Z,34.50
2017-07-21T13:55:55.634Z,33.30
2017-07-21T13:58:23.951Z,33.10
2017-07-21T14:00:51.454Z,33.10
2017-07-21T14:03:19.037Z,33.80
2017-07-21T14:05:47.325Z,34.20
2017-07-21T14:08:15.642Z,34.40
2017-07-21T14:10:43.171Z,34.30
2017-07-21T14:13:10.707Z,34.60
2017-07-21T14:15:38.992Z,34.80
2017-07-21T14:18:07.295Z,35.10
2017-07-21T14:20:34.797Z,35.10
2017-07-21T14:23:02.354Z,35.20
2017-07-21T14:25:29.910Z,35.40
2017-07-21T14:27:57.453Z,35.50
2017-07-21T14:30:24.969Z,35.50
2017-07-21T14:32:53.298Z,34.90
2017-07-21T14:35:20.808Z,34.90
2017-07-21T14:37:49.114Z,35.10
2017-07-21T14:40:16.646Z,35.10
2017-07-21T14:42:44.951Z,33.70
2017-07-21T14:45:12.471Z,33.70
2017-07-21T14:47:40.015Z,32.90
2017-07-21T14:50:07.554Z,32.70
2017-07-21T14:52:35.877Z,32.20
2017-07-21T14:57:47.839Z,32.60
2017-07-21T15:00:15.346Z,32.80
2017-07-21T15:02:42.913Z,32.70
2017-07-21T15:05:10.421Z,33.00
2017-07-21T15:07:37.959Z,33.20
2017-07-21T15:10:05.496Z,32.80
2017-07-21T15:12:33.022Z,32.50
2017-07-21T15:15:00.543Z,32.30
2017-07-21T15:17:28.106Z,31.60
2017-07-21T15:19:55.621Z,31.60
2017-07-21T15:22:23.909Z,32.80
2017-07-21T15:24:52.246Z,32.90
2017-07-21T15:27:19.757Z,32.90
2017-07-21T15:29:47.301Z,33.00
2017-07-21T15:32:15.562Z,32.30
2017-07-21T15:34:43.259Z,32.20
2017-07-21T15:37:10.792Z,32.00
2017-07-21T15:39:39.101Z,32.80
2017-07-21T15:42:06.651Z,32.80
2017-07-21T15:44:34.191Z,33.00
2017-07-21T15:47:02.476Z,33.40
2017-07-21T15:49:30.766Z,33.50
2017-07-21T15:51:58.277Z,33.40
2017-07-21T15:54:25.794Z,33.50
2017-07-21T15:56:53.293Z,33.60
2017-07-21T15:59:20.819Z,33.50
2017-07-21T16:01:48.337Z,33.30
2017-07-21T16:04:15.914Z,33.30
2017-07-21T16:06:44.186Z,32.80
2017-07-21T16:09:12.497Z,32.40
2017-07-21T16:11:40.047Z,32.40
2017-07-21T16:14:07.621Z,32.70
2017-07-21T16:16:35.161Z,32.90
2017-07-21T16:19:02.682Z,31.90
2017-07-21T16:21:30.209Z,31.90
2017-07-21T16:23:57.757Z,31.80
2017-07-21T16:26:25.367Z,31.60
2017-07-21T16:28:52.889Z,31.40
2017-07-21T16:31:20.401Z,31.60
2017-07-21T16:33:48.228Z,31.90
2017-07-21T16:36:15.931Z,32.00
2017-07-21T16:38:44.231Z,32.50
2017-07-21T16:41:11.742Z,32.50
2017-07-21T16:43:40.095Z,32.70
2017-07-21T16:46:07.640Z,32.70
2017-07-21T16:48:35.219Z,32.70
2017-07-21T16:51:02.906Z,32.60
2017-07-21T16:53:33.819Z,32.70
2017-07-21T16:56:01.342Z,32.90
2017-07-21T16:58:28.861Z,33.00
2017-07-21T17:00:56.396Z,33.00
2017-07-21T17:03:23.963Z,33.10
2017-07-21T17:05:51.478Z,33.10
2017-07-21T17:08:19.022Z,33.20
2017-07-21T17:10:50.361Z,32.90
2017-07-21T17:13:17.896Z,32.90
2017-07-21T17:15:45.424Z,32.80
2017-07-21T17:18:13.014Z,32.70
2017-07-21T17:20:40.515Z,32.70
2017-07-21T17:23:08.797Z,32.60
2017-07-21T17:25:36.370Z,32.60
2017-07-21T17:28:03.894Z,32.60
2017-07-21T17:30:31.473Z,32.50
2017-07-21T17:32:59.777Z,32.50
2017-07-21T17:35:27.301Z,32.40
2017-07-21T17:37:55.594Z,32.00
2017-07-21T17:40:23.169Z,32.00
2017-07-21T17:42:50.702Z,32.20
2017-07-21T17:45:18.266Z,32.20
2017-07-21T17:47:45.790Z,32.10
2017-07-21T17:50:13.308Z,32.20
2017-07-21T17:52:40.813Z,32.20
2017-07-21T17:55:08.335Z,32.10
2017-07-21T17:57:35.865Z,32.10
2017-07-21T18:00:03.419Z,32.00
2017-07-21T18:02:31.707Z,31.90
2017-07-21T18:04:59.254Z,31.90
2017-07-21T18:07:26.770Z,31.80
2017-07-21T18:09:54.332Z,31.70
2017-07-21T18:12:21.846Z,31.50
2017-07-21T18:14:49.369Z,31.30
2017-07-21T18:17:16.917Z,31.30
2017-07-21T18:19:44.440Z,31.20
2017-07-21T18:22:12.001Z,31.20
2017-07-21T18:24:39.530Z,31.20
2017-07-21T18:27:07.810Z,31.10
2017-07-21T18:29:35.356Z,31.10
2017-07-21T18:32:02.874Z,31.10
2017-07-21T18:34:30.407Z,31.10
2017-07-21T18:36:57.958Z,31.10
2017-07-21T18:39:25.495Z,31.00
2017-07-21T18:41:52.999Z,31.00
2017-07-21T18:44:20.586Z,30.90
2017-07-21T18:46:48.081Z,30.70
2017-07-21T18:49:16.383Z,30.70
2017-07-21T18:51:43.881Z,30.70
2017-07-21T18:54:11.471Z,30.50
2017-07-21T18:56:39.788Z,30.30
2017-07-21T18:59:07.329Z,30.30
2017-07-21T19:01:34.854Z,30.20
2017-07-21T19:04:03.162Z,30.00
2017-07-21T19:06:31.438Z,29.90
2017-07-21T19:08:59.782Z,29.80
2017-07-21T19:11:27.313Z,29.80
2017-07-21T19:13:54.837Z,29.80
2017-07-21T19:16:23.160Z,29.60
2017-07-21T19:18:50.673Z,29.60
2017-07-21T19:21:18.234Z,29.50
2017-07-21T19:23:46.522Z,29.40
2017-07-21T19:26:14.072Z,29.40
2017-07-21T19:28:41.577Z,29.30
2017-07-21T19:31:09.103Z,29.30
2017-07-21T19:33:36.642Z,29.20
2017-07-21T19:36:04.183Z,29.20
2017-07-21T19:38:31.677Z,29.10
2017-07-21T19:40:59.244Z,28.90
2017-07-21T19:43:26.747Z,28.90
2017-07-21T19:45:54.311Z,28.80
2017-07-21T19:48:21.833Z,28.80
2017-07-21T19:50:49.381Z,28.70
2017-07-21T19:53:16.959Z,28.60
2017-07-21T19:55:44.545Z,28.50
2017-07-21T19:58:12.101Z,28.50
2017-07-21T20:00:39.625Z,28.50
2017-07-21T20:03:07.147Z,28.40
2017-07-21T20:05:35.477Z,28.30
2017-07-21T20:08:03.011Z,28.30
2017-07-21T20:10:30.565Z,28.30
2017-07-21T20:12:58.851Z,28.20
2017-07-21T20:15:26.389Z,28.10
2017-07-21T20:17:53.910Z,28.10
2017-07-21T20:20:21.421Z,28.00
2017-07-21T20:22:48.969Z,28.00
2017-07-21T20:25:16.544Z,27.90
2017-07-21T20:27:44.080Z,27.80
2017-07-21T20:30:11.611Z,27.70
2017-07-21T20:32:39.114Z,27.70
2017-07-21T20:35:07.467Z,27.70
2017-07-21T20:37:35.046Z,27.60
2017-07-21T20:40:02.625Z,27.60
2017-07-21T20:42:30.184Z,27.50
2017-07-21T20:44:57.765Z,27.40
2017-07-21T20:47:25.368Z,27.40
2017-07-21T20:49:52.917Z,27.30
2017-07-21T20:52:20.498Z,27.20
2017-07-21T20:54:48.021Z,27.20
2017-07-21T20:57:15.577Z,27.10
2017-07-21T20:59:43.145Z,27.00
2017-07-21T21:02:10.694Z,27.00
2017-07-21T21:04:38.263Z,27.00
2017-07-21T21:07:05.826Z,27.00
2017-07-21T21:09:33.326Z,26.90
2017-07-21T21:12:01.657Z,26.90
2017-07-21T21:14:29.200Z,26.80
2017-07-21T21:16:56.778Z,26.90
2017-07-21T21:19:24.323Z,26.90
2017-07-21T21:21:51.908Z,26.80
2017-07-21T21:24:19.437Z,26.70
2017-07-21T21:26:46.974Z,26.70
2017-07-21T21:29:14.490Z,26.60
2017-07-21T21:31:42.030Z,26.50
2017-07-21T21:34:09.608Z,26.60
2017-07-21T21:36:37.178Z,26.60
2017-07-21T21:39:04.726Z,26.60
2017-07-21T21:41:32.301Z,26.60
2017-07-21T21:43:59.829Z,26.40
2017-07-21T21:46:27.429Z,26.60
2017-07-21T21:48:54.988Z,26.60
2017-07-21T21:51:22.524Z,26.60
2017-07-21T21:53:50.074Z,26.50
2017-07-21T21:56:17.626Z,26.50
2017-07-21T21:58:45.131Z,26.40
2017-07-21T22:01:12.682Z,26.20
2017-07-21T22:03:40.200Z,26.20
2017-07-21T22:06:07.778Z,26.20
2017-07-21T22:08:35.286Z,26.30
2017-07-21T22:11:02.849Z,26.30
2017-07-21T22:13:30.382Z,26.30
2017-07-21T22:15:57.939Z,26.40
2017-07-21T22:18:25.496Z,26.40
2017-07-21T22:20:53.023Z,26.40
2017-07-21T22:23:20.536Z,26.40
2017-07-21T22:25:48.879Z,26.30
2017-07-21T22:28:16.408Z,26.30
2017-07-21T22:30:43.937Z,26.20
2017-07-21T22:33:11.519Z,26.20
2017-07-21T22:35:39.029Z,26.20
2017-07-21T22:38:06.550Z,26.30
2017-07-21T22:40:34.082Z,26.30
2017-07-21T22:43:01.646Z,26.20
2017-07-21T22:45:29.940Z,26.30
2017-07-21T22:47:57.494Z,26.30
2017-07-21T22:50:25.051Z,26.30
2017-07-21T22:52:52.592Z,26.20
2017-07-21T22:55:20.910Z,26.10
2017-07-21T22:57:48.485Z,26.10
2017-07-21T23:00:16.025Z,26.00
2017-07-21T23:02:43.562Z,26.10
2017-07-21T23:05:11.126Z,26.10
2017-07-21T23:07:38.658Z,26.10
2017-07-21T23:10:06.187Z,26.00
2017-07-21T23:12:33.709Z,26.10
2017-07-21T23:15:01.233Z,26.20
2017-07-21T23:17:28.816Z,26.10
2017-07-21T23:19:57.094Z,26.00
2017-07-21T23:22:24.628Z,26.00
2017-07-21T23:24:52.192Z,26.00
2017-07-21T23:27:19.747Z,26.00
2017-07-21T23:29:47.283Z,26.00
2017-07-21T23:32:14.834Z,26.00
2017-07-21T23:34:42.409Z,26.00
2017-07-21T23:37:09.946Z,25.90
2017-07-21T23:39:37.471Z,25.90
2017-07-21T23:42:05.066Z,25.90
2017-07-21T23:44:32.590Z,25.90
2017-07-21T23:47:00.897Z,25.90
2017-07-21T23:49:28.409Z,25.80
2017-07-21T23:51:55.946Z,25.90
2017-07-21T23:54:23.480Z,25.90
2017-07-21T23:56:51.062Z,25.90
2017-07-21T23:59:18.626Z,25.80
